Time;durP1;ratioP1;P1;durP2;ratioP2;P2;SDS_P1;SDS_P2;PMS_P1;PMS_P2;Temp;Humidity;BMP_temperature;BMP_pressure;BME280_temperature;BME280_humidity;BME280_pressure;Samples;Min_cycle;Max_cycle;Signal;HPM_P1;HPM_P2
2022/09/12 00:01:09;;;;;;;7.50;6.80;;;;;;;19.95;100.00;98988.41;5130590;27;20196;-58
2022/09/12 00:03:36;;;;;;;8.02;7.35;;;;;;;19.74;100.00;98953.16;5130806;27;20201;-58
2022/09/12 00:06:09;;;;;;;7.75;7.25;;;;;;;19.76;100.00;98986.28;5130614;27;20196;-58
2022/09/12 00:08:36;;;;;;;7.45;7.00;;;;;;;19.85;100.00;98980.34;5130683;27;20197;-58
2022/09/12 00:11:06;;;;;;;8.00;7.38;;;;;;;19.89;100.00;98978.31;5131038;27;20212;-57
2022/09/12 00:13:33;;;;;;;8.38;7.78;;;;;;;19.87;100.00;98969.69;5130313;27;20232;-58
2022/09/12 00:16:00;;;;;;;8.45;7.40;;;;;;;19.80;100.00;98981.63;5124137;27;20294;-56
2022/09/12 00:18:28;;;;;;;7.30;6.80;;;;;;;19.80;100.00;98974.59;5109977;28;20572;-58
2022/09/12 00:20:55;;;;;;;7.65;7.15;;;;;;;19.77;100.00;98977.44;5110056;28;20299;-58
2022/09/12 00:23:22;;;;;;;7.68;7.25;;;;;;;19.79;100.00;98979.97;5109943;28;20569;-58
2022/09/12 00:25:49;;;;;;;8.10;7.50;;;;;;;19.83;100.00;98998.06;5109898;28;20551;-56
2022/09/12 00:28:18;;;;;;;7.53;7.07;;;;;;;19.83;100.00;98995.44;5109761;28;20195;-55
2022/09/12 00:30:46;;;;;;;7.00;6.50;;;;;;;19.78;100.00;98988.81;5109887;28;20194;-56
2022/09/12 00:33:14;;;;;;;7.95;7.32;;;;;;;19.47;100.00;98975.25;5109646;28;20240;-55
2022/09/12 00:35:44;;;;;;;8.95;7.38;;;;;;;19.50;100.00;99001.41;5109923;28;20194;-58
2022/09/12 00:38:11;;;;;;;9.10;7.78;;;;;;;19.42;100.00;99001.06;5109857;28;20202;-55
2022/09/12 00:40:38;;;;;;;9.02;7.70;;;;;;;19.35;100.00;99006.91;5109730;28;20695;-58
2022/09/12 00:43:05;;;;;;;8.98;8.27;;;;;;;19.39;100.00;98997.84;5109545;28;20222;-58
2022/09/12 00:45:32;;;;;;;8.13;7.53;;;;;;;19.27;100.00;98999.56;5109629;28;20196;-58
2022/09/12 00:48:03;;;;;;;8.85;7.97;;;;;;;19.21;100.00;98990.31;5109534;28;20197;-56
2022/09/12 00:50:32;;;;;;;8.30;7.72;;;;;;;19.07;100.00;98968.63;5109869;28;20206;-56
2022/09/12 00:53:05;;;;;;;8.40;7.80;;;;;;;19.15;100.00;98976.78;5109375;28;20218;-56
2022/09/12 00:55:36;;;;;;;9.43;8.50;;;;;;;19.15;100.00;98968.88;5109578;28;20195;-57
2022/09/12 00:58:08;;;;;;;7.63;7.20;;;;;;;19.19;100.00;98971.16;5109526;28;20197;-57
2022/09/12 01:00:36;;;;;;;8.13;7.40;;;;;;;19.14;100.00;98970.69;5109773;28;20198;-56
2022/09/12 01:03:05;;;;;;;7.40;7.00;;;;;;;19.20;100.00;98969.38;5109412;28;20187;-56
2022/09/12 01:05:36;;;;;;;7.90;7.22;;;;;;;18.80;100.00;98930.19;5109358;28;20605;-57
2022/09/12 01:08:05;;;;;;;7.95;7.35;;;;;;;19.11;100.00;98967.41;5109299;28;20197;-57
2022/09/12 01:10:35;;;;;;;7.57;7.07;;;;;;;19.07;100.00;98971.25;5109876;28;20230;-56
2022/09/12 01:13:05;;;;;;;7.57;6.97;;;;;;;19.15;100.00;98966.25;5109370;28;20226;-56
2022/09/12 01:15:32;;;;;;;8.32;7.82;;;;;;;19.13;100.00;98968.16;5109480;28;20281;-56
2022/09/12 01:18:11;;;;;;;7.65;7.18;;;;;;;19.11;100.00;98962.16;5109060;28;20198;-57
2022/09/12 01:20:56;;;;;;;8.05;7.30;;;;;;;19.09;100.00;98974.59;5109647;28;20704;-58
2022/09/12 01:24:14;;;;;;;7.32;6.93;;;;;;;19.04;100.00;98969.66;5109495;28;20612;-59
2022/09/12 01:27:19;;;;;;;7.55;7.05;;;;;;;19.07;100.00;98974.72;5109303;28;20202;-58
2022/09/12 01:30:19;;;;;;;8.05;7.55;;;;;;;18.95;100.00;98965.06;5109322;28;20205;-57
2022/09/12 01:32:57;;;;;;;8.45;7.85;;;;;;;18.97;100.00;98959.69;5109016;28;20620;-59
2022/09/12 01:35:32;;;;;;;7.82;7.22;;;;;;;19.07;100.00;98958.09;5110832;28;20206;-58
2022/09/12 01:38:10;;;;;;;7.90;7.38;;;;;;;19.10;100.00;98949.97;5113073;28;20582;-59
2022/09/12 01:40:45;;;;;;;7.68;7.18;;;;;;;19.04;100.00;98959.16;5113106;28;20214;-59
2022/09/12 01:43:20;;;;;;;7.88;7.18;;;;;;;19.07;100.00;98950.19;5112793;28;20570;-59
2022/09/12 01:45:56;;;;;;;8.07;7.57;;;;;;;18.85;100.00;98914.91;5113168;28;20208;-59
2022/09/12 01:48:27;;;;;;;8.30;7.70;;;;;;;19.07;100.00;98945.78;5112627;28;20202;-59
2022/09/12 01:51:02;;;;;;;7.45;7.05;;;;;;;19.16;100.00;98953.00;5112664;28;20252;-56
2022/09/12 01:53:34;;;;;;;7.60;7.10;;;;;;;19.09;100.00;98950.91;5112629;28;20218;-57
2022/09/12 01:56:07;;;;;;;7.68;7.10;;;;;;;19.00;100.00;98934.00;5112842;28;20278;-60
2022/09/12 01:58:40;;;;;;;8.00;7.45;;;;;;;19.09;100.00;98941.22;5112494;28;20278;-56
2022/09/12 02:01:15;;;;;;;7.55;7.15;;;;;;;19.11;100.00;98946.38;5112462;28;20190;-59
2022/09/12 02:03:47;;;;;;;8.20;7.57;;;;;;;19.06;100.00;98948.53;5112384;28;20198;-59
2022/09/12 02:06:19;;;;;;;7.90;7.22;;;;;;;19.03;100.00;98938.22;5112332;28;20202;-55
2022/09/12 02:08:50;;;;;;;7.28;6.85;;;;;;;18.98;100.00;98949.06;5112587;28;20191;-57
2022/09/12 02:11:19;;;;;;;7.97;6.90;;;;;;;18.79;100.00;98920.63;5112494;28;20197;-59
2022/09/12 02:13:53;;;;;;;7.70;7.10;;;;;;;18.95;100.00;98951.94;5112131;28;20218;-57
2022/09/12 02:16:27;;;;;;;7.75;7.13;;;;;;;18.94;100.00;98946.78;5112151;28;20578;-57
2022/09/12 02:18:58;;;;;;;7.50;7.07;;;;;;;18.94;100.00;98938.88;5112107;28;20198;-55
2022/09/12 02:21:27;;;;;;;7.18;6.47;;;;;;;18.96;100.00;98940.44;5112128;28;20316;-58
2022/09/12 02:23:58;;;;;;;8.10;7.60;;;;;;;18.98;100.00;98945.59;5112127;28;20295;-57
2022/09/12 02:26:32;;;;;;;9.15;8.30;;;;;;;18.90;100.00;98937.41;5111986;28;20203;-55
2022/09/12 02:28:59;;;;;;;9.38;8.65;;;;;;;18.82;100.00;98946.69;5111825;28;20195;-55
2022/09/12 02:31:33;;;;;;;8.32;7.57;;;;;;;18.70;100.00;98947.56;5112123;28;20612;-57
2022/09/12 02:34:11;;;;;;;7.88;7.30;;;;;;;18.68;100.00;98944.22;5111619;28;20770;-57
2022/09/12 02:36:48;;;;;;;7.28;6.88;;;;;;;18.73;100.00;98952.63;5111762;27;20190;-58
2022/09/12 02:39:18;;;;;;;7.43;7.03;;;;;;;18.73;100.00;98946.53;5111487;28;20202;-58
2022/09/12 02:41:46;;;;;;;7.10;6.70;;;;;;;18.68;100.00;98943.38;5111806;28;20209;-57
2022/09/12 02:44:13;;;;;;;6.75;6.35;;;;;;;18.67;100.00;98950.41;5111570;28;20195;-58
2022/09/12 02:46:46;;;;;;;6.45;6.15;;;;;;;18.70;100.00;98944.94;5110547;28;20212;-57
2022/09/12 02:49:13;;;;;;;7.30;6.60;;;;;;;18.66;100.00;98951.34;5111502;28;20187;-58
2022/09/12 02:51:41;;;;;;;7.10;6.53;;;;;;;18.63;100.00;98943.69;5111548;28;20681;-58
2022/09/12 02:54:10;;;;;;;6.90;6.60;;;;;;;18.68;100.00;98941.59;5111372;28;20218;-59
2022/09/12 02:56:42;;;;;;;7.77;6.80;;;;;;;18.69;100.00;98945.91;5111605;28;20725;-58
2022/09/12 02:59:11;;;;;;;6.77;6.37;;;;;;;18.70;100.00;98938.84;5111464;28;20277;-55
2022/09/12 03:01:57;;;;;;;6.13;5.82;;;;;;;18.73;100.00;98936.00;5111568;28;20190;-55
2022/09/12 03:04:46;;;;;;;6.50;6.10;;;;;;;18.67;100.00;98934.63;5111115;28;20195;-56
2022/09/12 03:07:19;;;;;;;7.10;6.60;;;;;;;18.67;100.00;98934.63;5111267;28;20232;-56
2022/09/12 03:09:50;;;;;;;6.80;6.40;;;;;;;18.60;100.00;98924.69;5111158;28;20212;-56
2022/09/12 03:12:30;;;;;;;6.97;6.32;;;;;;;18.62;100.00;98933.31;5110916;28;20212;-55
2022/09/12 03:15:12;;;;;;;6.60;6.07;;;;;;;18.63;100.00;98934.97;5111164;28;20211;-55
2022/09/12 03:17:56;;;;;;;6.45;6.05;;;;;;;18.65;100.00;98931.28;5111245;28;20588;-55
2022/09/12 03:20:37;;;;;;;6.57;5.60;;;;;;;18.66;100.00;98932.97;5110732;28;25112;-55
2022/09/12 03:23:11;;;;;;;5.85;5.45;;;;;;;18.69;100.00;98940.63;5110620;28;25064;-57
2022/09/12 03:25:43;;;;;;;6.47;6.07;;;;;;;18.64;100.00;98941.91;5110476;28;20204;-58
2022/09/12 03:28:14;;;;;;;6.68;6.28;;;;;;;18.64;100.00;98948.00;5107090;28;20298;-58
2022/09/12 03:30:42;;;;;;;6.23;5.70;;;;;;;18.59;100.00;98944.88;5110249;28;20713;-56
2022/09/12 03:33:14;;;;;;;6.90;6.30;;;;;;;18.57;100.00;98941.47;5110655;28;20323;-56
2022/09/12 03:35:41;;;;;;;6.25;5.63;;;;;;;18.49;100.00;98936.75;5110426;28;25120;-58
2022/09/12 03:38:08;;;;;;;6.50;5.90;;;;;;;18.52;100.00;98941.78;5110338;28;20209;-58
2022/09/12 03:40:35;;;;;;;6.23;5.87;;;;;;;18.48;100.00;98948.22;5110592;28;20702;-58
2022/09/12 03:43:02;;;;;;;6.70;6.15;;;;;;;18.52;100.00;98948.81;5110370;28;20671;-59
2022/09/12 03:45:29;;;;;;;6.43;5.50;;;;;;;18.49;100.00;98951.69;5110310;28;20602;-59
2022/09/12 03:47:57;;;;;;;5.72;5.32;;;;;;;18.42;100.00;98950.41;5109771;28;20203;-59
2022/09/12 03:50:25;;;;;;;6.20;5.70;;;;;;;18.47;100.00;98958.84;5108816;27;25060;-58
2022/09/12 03:52:52;;;;;;;5.57;5.28;;;;;;;18.42;100.00;98942.53;5106771;28;20685;-58
2022/09/12 03:55:20;;;;;;;5.20;4.90;;;;;;;18.46;100.00;98955.38;5108905;28;20648;-58
2022/09/12 03:57:47;;;;;;;5.82;5.32;;;;;;;18.45;100.00;98958.09;5108531;28;20194;-59
2022/09/12 04:00:14;;;;;;;5.60;5.23;;;;;;;18.47;100.00;98961.47;5109554;28;20205;-58
2022/09/12 04:02:41;;;;;;;5.18;4.80;;;;;;;18.40;100.00;98947.88;5110191;28;20597;-58
2022/09/12 04:05:08;;;;;;;5.27;4.97;;;;;;;18.38;100.00;98951.59;5109923;28;25124;-57
2022/09/12 04:07:37;;;;;;;6.03;5.43;;;;;;;18.37;100.00;98955.16;5110210;28;20702;-56
2022/09/12 04:10:04;;;;;;;5.10;4.70;;;;;;;18.40;100.00;98954.94;5109975;28;25168;-56
2022/09/12 04:12:31;;;;;;;5.22;4.82;;;;;;;18.36;100.00;98961.38;5110064;28;20668;-56
2022/09/12 04:14:58;;;;;;;5.80;5.15;;;;;;;18.31;100.00;98963.47;5109534;28;20225;-53
2022/09/12 04:17:25;;;;;;;4.97;4.57;;;;;;;18.31;100.00;98966.09;5109854;28;25062;-54
2022/09/12 04:19:52;;;;;;;6.50;5.00;;;;;;;18.25;100.00;98971.78;5109700;28;25065;-54
2022/09/12 04:22:19;;;;;;;5.10;4.80;;;;;;;18.28;100.00;98974.19;5110007;28;20281;-53
2022/09/12 04:24:48;;;;;;;6.77;5.60;;;;;;;18.35;100.00;98978.06;5109471;28;25104;-53
2022/09/12 04:27:15;;;;;;;5.35;4.85;;;;;;;18.35;100.00;98980.69;5109662;28;20649;-53
2022/09/12 04:29:42;;;;;;;5.27;4.73;;;;;;;18.37;100.00;98984.06;5109539;28;20204;-53
2022/09/12 04:32:09;;;;;;;5.57;5.20;;;;;;;18.36;100.00;98979.75;5109577;28;20231;-53
2022/09/12 04:34:36;;;;;;;8.52;4.75;;;;;;;18.42;100.00;98984.56;5109651;28;25102;-53
2022/09/12 04:37:03;;;;;;;7.87;5.60;;;;;;;18.40;100.00;98979.41;5109683;28;20200;-53
2022/09/12 04:39:30;;;;;;;5.27;4.97;;;;;;;18.40;100.00;98984.69;5109842;28;20210;-53
2022/09/12 04:41:58;;;;;;;4.75;4.55;;;;;;;18.47;100.00;98985.13;5109649;28;25075;-53
2022/09/12 04:44:25;;;;;;;5.17;4.67;;;;;;;18.57;100.00;98988.78;5108697;28;25055;-54
2022/09/12 04:46:52;;;;;;;6.32;5.72;;;;;;;18.58;100.00;98984.41;5109904;28;20687;-55
2022/09/12 04:49:19;;;;;;;7.37;4.70;;;;;;;18.74;100.00;98991.09;5109733;28;20209;-54
2022/09/12 04:51:46;;;;;;;4.35;4.05;;;;;;;18.76;100.00;98994.44;5109661;28;20233;-54
2022/09/12 04:54:17;;;;;;;4.97;4.57;;;;;;;18.89;100.00;99004.94;5109817;28;20245;-54
2022/09/12 04:56:46;;;;;;;6.53;3.95;;;;;;;18.90;100.00;99006.63;5109438;28;20203;-54
2022/09/12 04:59:15;;;;;;;5.57;4.60;;;;;;;19.01;100.00;99005.84;5109450;28;20209;-54
2022/09/12 05:01:43;;;;;;;9.40;4.07;;;;;;;19.18;100.00;99016.03;5109443;28;20204;-53
2022/09/12 05:04:10;;;;;;;4.18;3.78;;;;;;;19.63;100.00;99019.78;5109465;28;20204;-54
2022/09/12 05:06:38;;;;;;;5.00;4.60;;;;;;;21.02;100.00;99015.19;5109567;28;20221;-54
2022/09/12 05:09:07;;;;;;;3.92;3.22;;;;;;;22.81;98.37;99028.47;5109473;28;20751;-53
2022/09/12 05:11:37;;;;;;;6.18;4.18;;;;;;;24.47;89.32;99011.63;5112694;28;20220;-54
2022/09/12 05:14:04;;;;;;;5.20;3.30;;;;;;;26.04;82.63;99045.00;5113159;28;20215;-53
2022/09/12 05:16:32;;;;;;;4.50;2.90;;;;;;;27.44;75.43;99043.81;5113486;28;20205;-55
2022/09/12 05:18:59;;;;;;;7.70;3.40;;;;;;;28.38;67.08;99059.44;5113463;28;20282;-54
2022/09/12 05:21:27;;;;;;;3.42;3.22;;;;;;;28.60;64.84;99070.44;5113183;28;20286;-55
2022/09/12 05:23:55;;;;;;;3.65;3.22;;;;;;;29.21;62.49;99073.28;5113164;28;20237;-55
2022/09/12 05:26:23;;;;;;;2.78;2.55;;;;;;;29.58;61.15;99069.09;5113340;28;20226;-55
2022/09/12 05:28:51;;;;;;;3.38;2.83;;;;;;;30.52;58.18;99076.78;5113120;28;20290;-55
2022/09/12 05:31:20;;;;;;;3.22;2.92;;;;;;;30.96;56.69;99073.31;5113078;28;20195;-54
2022/09/12 05:33:49;;;;;;;2.90;2.60;;;;;;;30.82;55.61;99068.78;5112742;28;20249;-54
2022/09/12 05:36:18;;;;;;;3.13;2.83;;;;;;;31.04;54.14;99074.06;5112886;28;20742;-54
2022/09/12 05:38:46;;;;;;;3.55;2.67;;;;;;;31.64;51.87;99067.63;5112711;28;20230;-54
2022/09/12 05:41:15;;;;;;;5.20;2.42;;;;;;;31.17;51.02;99059.19;5113094;28;20581;-55
2022/09/12 05:43:43;;;;;;;2.30;2.10;;;;;;;31.61;50.60;99070.66;5112986;28;20553;-55
2022/09/12 05:46:12;;;;;;;3.40;3.30;;;;;;;31.72;48.95;99074.72;5112688;28;20230;-54
2022/09/12 05:48:41;;;;;;;3.85;3.50;;;;;;;32.01;47.76;99076.47;5112787;28;20631;-54
2022/09/12 05:51:11;;;;;;;3.08;2.88;;;;;;;31.98;48.33;99076.84;5112492;28;20206;-57
2022/09/12 05:53:39;;;;;;;2.97;2.33;;;;;;;32.18;47.45;99069.84;5112787;28;20675;-60
2022/09/12 05:56:09;;;;;;;2.38;2.17;;;;;;;32.61;45.52;99075.16;5112754;28;20729;-57
2022/09/12 05:58:37;;;;;;;4.88;1.90;;;;;;;32.41;45.90;99075.81;5112615;28;20677;-57
2022/09/12 06:01:10;;;;;;;1.98;1.77;;;;;;;32.68;45.33;99068.78;5112906;28;20283;-57
2022/09/12 06:03:40;;;;;;;4.55;2.10;;;;;;;32.58;45.77;99075.53;5112259;28;20234;-57
2022/09/12 06:06:12;;;;;;;5.53;2.00;;;;;;;32.57;45.95;99072.03;5112557;28;20273;-54
2022/09/12 06:08:39;;;;;;;3.13;1.98;;;;;;;33.42;44.06;99084.34;5111848;28;20195;-53
2022/09/12 06:11:08;;;;;;;4.30;1.80;;;;;;;34.42;41.44;99073.63;5112495;28;20671;-55
2022/09/12 06:13:37;;;;;;;5.13;2.05;;;;;;;34.69;40.59;99070.88;5112334;28;20191;-56
2022/09/12 06:16:07;;;;;;;2.47;2.00;;;;;;;35.12;39.70;99069.34;5112160;28;20199;-57
2022/09/12 06:18:34;;;;;;;2.03;1.92;;;;;;;35.49;38.23;99064.22;5112521;28;20199;-56
2022/09/12 06:21:03;;;;;;;6.05;2.10;;;;;;;35.76;37.89;99063.09;5111949;28;20194;-57
2022/09/12 06:23:32;;;;;;;3.45;1.92;;;;;;;36.43;35.65;99064.25;5112332;28;20194;-57
2022/09/12 06:25:59;;;;;;;3.60;2.15;;;;;;;36.34;36.49;99066.44;5112170;28;20195;-58
2022/09/12 06:28:26;;;;;;;2.08;1.70;;;;;;;36.11;36.31;99065.34;5111952;28;20645;-57
2022/09/12 06:30:54;;;;;;;1.95;1.83;;;;;;;35.98;37.03;99061.69;5112431;28;20673;-57
2022/09/12 06:33:20;;;;;;;2.95;1.90;;;;;;;34.95;37.04;99038.50;5111698;28;20270;-58
2022/09/12 06:35:47;;;;;;;2.00;1.90;;;;;;;35.25;37.96;99061.22;5111947;28;20309;-55
2022/09/12 06:38:14;;;;;;;2.40;2.20;;;;;;;35.97;37.66;99054.63;5111847;28;20660;-57
2022/09/12 06:40:44;;;;;;;1.92;1.75;;;;;;;36.68;36.66;99056.94;5111765;28;20277;-57
2022/09/12 06:43:13;;;;;;;7.47;2.20;;;;;;;36.99;34.19;99060.59;5111209;28;20202;-56
2022/09/12 06:45:48;;;;;;;2.30;2.08;;;;;;;36.73;34.35;99059.84;5111918;28;20736;-57
2022/09/12 06:48:15;;;;;;;5.57;2.17;;;;;;;37.14;34.29;99058.31;5111498;28;20197;-56
2022/09/12 06:50:41;;;;;;;3.35;2.33;;;;;;;36.99;34.31;99057.91;5110288;28;20281;-57
2022/09/12 06:53:08;;;;;;;4.22;1.92;;;;;;;36.71;34.64;99061.09;5111812;28;20198;-56
2022/09/12 06:55:35;;;;;;;5.32;1.65;;;;;;;36.27;34.42;99054.00;5111510;28;20228;-54
2022/09/12 06:58:04;;;;;;;2.13;1.90;;;;;;;36.31;35.07;99060.63;5111618;28;20554;-57
2022/09/12 07:00:31;;;;;;;2.38;1.67;;;;;;;36.98;33.51;99067.06;5111381;28;20202;-57
2022/09/12 07:02:58;;;;;;;2.15;2.05;;;;;;;37.48;32.88;99061.47;5110835;28;20205;-57
2022/09/12 07:05:25;;;;;;;2.97;1.90;;;;;;;36.83;33.83;99053.06;5111204;28;20197;-57
2022/09/12 07:07:51;;;;;;;2.10;2.00;;;;;;;36.91;33.23;99050.88;5111192;28;20684;-57
2022/09/12 07:10:19;;;;;;;1.77;1.67;;;;;;;36.21;34.84;99057.56;5110903;28;20602;-57
2022/09/12 07:12:46;;;;;;;4.22;2.13;;;;;;;35.57;35.30;99055.88;5111058;28;20199;-57
2022/09/12 07:15:15;;;;;;;2.15;1.60;;;;;;;36.27;35.17;99056.69;5110963;28;20220;-56
2022/09/12 07:17:42;;;;;;;3.58;1.83;;;;;;;37.02;34.27;99063.66;5111049;28;20201;-57
2022/09/12 07:20:09;;;;;;;1.15;1.15;;;;;;;36.56;34.15;99056.03;5111198;28;20741;-54
2022/09/12 07:22:36;;;;;;;2.95;1.80;;;;;;;37.22;32.66;99055.38;5110889;28;20198;-54
2022/09/12 07:25:03;;;;;;;2.67;1.70;;;;;;;38.07;30.85;99049.78;5110941;28;20269;-54
2022/09/12 07:27:30;;;;;;;7.78;1.67;;;;;;;38.85;30.02;99054.94;5110830;28;20217;-54
2022/09/12 07:29:57;;;;;;;5.85;1.77;;;;;;;39.14;29.79;99061.28;5111018;28;20198;-54
2022/09/12 07:32:26;;;;;;;2.05;1.67;;;;;;;38.54;29.89;99063.44;5110076;28;20272;-53
2022/09/12 07:34:53;;;;;;;2.53;2.00;;;;;;;38.77;28.79;99058.84;5109884;28;20249;-59
2022/09/12 07:37:20;;;;;;;1.67;1.58;;;;;;;38.69;28.75;99063.81;5110007;28;20200;-57
2022/09/12 07:39:46;;;;;;;1.77;1.67;;;;;;;38.86;29.10;99062.00;5111044;28;20736;-57
2022/09/12 07:42:14;;;;;;;3.03;1.50;;;;;;;39.18;28.54;99068.69;5110923;28;20654;-58
2022/09/12 07:44:41;;;;;;;2.25;1.92;;;;;;;38.92;27.54;99062.97;5110929;28;20297;-54
2022/09/12 07:47:08;;;;;;;1.60;1.50;;;;;;;38.77;27.04;99067.00;5110471;28;20281;-55
2022/09/12 07:49:36;;;;;;;3.75;1.88;;;;;;;39.27;28.10;99058.31;5110285;28;20288;-55
2022/09/12 07:52:03;;;;;;;3.67;1.52;;;;;;;39.50;27.50;99052.00;5110272;28;20198;-54
2022/09/12 07:54:32;;;;;;;2.20;2.00;;;;;;;39.34;27.55;99058.16;5110505;28;20719;-57
2022/09/12 07:56:58;;;;;;;4.82;2.13;;;;;;;38.91;28.59;99045.84;5110498;28;20286;-54
2022/09/12 07:59:26;;;;;;;2.30;1.48;;;;;;;39.08;27.42;99051.38;5110338;28;20655;-53
2022/09/12 08:01:53;;;;;;;3.55;1.60;;;;;;;39.69;26.97;99047.19;5109911;28;20201;-54
2022/09/12 08:04:21;;;;;;;1.70;1.60;;;;;;;40.78;26.27;99055.81;5109906;28;20198;-54
2022/09/12 08:06:49;;;;;;;1.70;1.60;;;;;;;40.78;25.53;99042.19;5110348;28;20194;-53
2022/09/12 08:09:16;;;;;;;1.50;1.40;;;;;;;40.85;25.34;99057.28;5110247;28;20291;-53
2022/09/12 08:11:43;;;;;;;4.05;1.40;;;;;;;40.66;24.45;99050.44;5110169;28;20247;-54
2022/09/12 08:14:10;;;;;;;2.47;2.28;;;;;;;39.47;26.37;99047.03;5110099;28;20205;-53
2022/09/12 08:16:38;;;;;;;1.25;1.15;;;;;;;39.90;25.43;99043.78;5109941;28;20202;-58
2022/09/12 08:19:05;;;;;;;2.08;1.45;;;;;;;39.86;25.33;99042.63;5109841;28;20190;-58
2022/09/12 08:21:33;;;;;;;2.42;1.30;;;;;;;39.63;25.23;99048.13;5110297;28;20216;-58
2022/09/12 08:24:03;;;;;;;2.13;1.20;;;;;;;38.62;26.11;99047.66;5109887;28;20198;-59
2022/09/12 08:26:31;;;;;;;1.10;1.00;;;;;;;36.78;28.46;99044.81;5110026;28;20286;-58
2022/09/12 08:28:58;;;;;;;1.58;1.40;;;;;;;34.19;32.36;99027.38;5109874;28;20289;-58
2022/09/12 08:31:27;;;;;;;2.83;2.17;;;;;;;32.56;35.41;99023.84;5109743;28;20202;-58
2022/09/12 08:33:56;;;;;;;1.70;1.60;;;;;;;30.94;38.28;99019.91;5109710;28;20228;-53
2022/09/12 08:36:25;;;;;;;1.55;1.55;;;;;;;29.82;40.99;99018.13;5109541;28;20218;-58
2022/09/12 08:38:55;;;;;;;1.50;1.40;;;;;;;29.22;43.45;99010.81;5109731;28;20194;-53
2022/09/12 08:41:29;;;;;;;2.70;2.58;;;;;;;28.96;44.76;99009.44;5109481;28;20190;-54
2022/09/12 08:44:11;;;;;;;2.30;2.13;;;;;;;28.35;45.92;99018.91;5109554;28;20198;-53
2022/09/12 08:46:50;;;;;;;3.40;1.60;;;;;;;28.34;46.44;99006.56;5113618;28;20280;-58
2022/09/12 08:49:26;;;;;;;1.88;1.67;;;;;;;28.59;46.39;99005.50;5113910;28;20286;-58
2022/09/12 08:51:54;;;;;;;1.40;1.40;;;;;;;28.41;48.45;98997.72;5113875;27;20745;-58
2022/09/12 08:54:25;;;;;;;3.10;2.80;;;;;;;28.25;46.45;98979.06;5113467;28;20190;-58
2022/09/12 08:57:00;;;;;;;3.65;2.05;;;;;;;28.35;46.39;98993.03;5113824;28;20285;-58
2022/09/12 08:59:27;;;;;;;1.65;1.55;;;;;;;28.07;47.79;98989.91;5113575;28;20205;-58
2022/09/12 09:01:59;;;;;;;2.78;2.55;;;;;;;27.62;48.67;98984.22;5113681;28;20190;-55
2022/09/12 09:04:37;;;;;;;1.73;1.67;;;;;;;27.42;48.51;98989.03;5113432;28;20201;-54
2022/09/12 09:07:28;;;;;;;2.15;1.95;;;;;;;27.34;49.08;98997.81;5113530;28;20198;-52
2022/09/12 09:10:06;;;;;;;3.15;2.95;;;;;;;27.30;48.64;98985.81;5113555;28;20219;-53
2022/09/12 09:12:45;;;;;;;8.05;3.17;;;;;;;27.45;48.47;98984.16;5113565;28;20198;-53
2022/09/12 09:15:34;;;;;;;1.75;1.65;;;;;;;27.45;48.83;98978.84;5113164;28;20218;-54
2022/09/12 09:18:05;;;;;;;3.25;2.55;;;;;;;27.81;48.56;98976.72;5113390;28;20195;-53
2022/09/12 09:20:40;;;;;;;2.40;2.30;;;;;;;27.64;48.96;98982.25;5113617;28;20234;-55
2022/09/12 09:23:11;;;;;;;1.90;1.80;;;;;;;27.72;49.01;98982.25;5113172;28;20233;-53
2022/09/12 09:25:51;;;;;;;3.00;2.70;;;;;;;28.51;46.40;98974.34;5113183;28;20652;-52
2022/09/12 09:28:24;;;;;;;4.53;1.98;;;;;;;28.56;46.01;98976.47;5110585;28;20201;-52
2022/09/12 09:30:51;;;;;;;3.53;2.47;;;;;;;28.97;45.46;98969.19;5101442;28;20207;-53
2022/09/12 09:33:22;;;;;;;5.78;4.20;;;;;;;29.24;43.96;98973.19;5092578;28;20620;-53
2022/09/12 09:36:00;;;;;;;7.82;4.88;;;;;;;28.89;44.57;98970.03;5092740;28;20743;-53
2022/09/12 09:38:40;;;;;;;5.10;4.72;;;;;;;29.92;43.21;98967.03;5104046;28;20198;-53
2022/09/12 09:41:23;;;;;;;6.03;5.25;;;;;;;31.16;40.02;98982.44;5109212;28;20245;-54
2022/09/12 09:43:51;;;;;;;3.28;1.70;;;;;;;31.11;38.64;98972.31;5109861;28;20238;-54
2022/09/12 09:46:18;;;;;;;2.35;1.80;;;;;;;30.70;39.79;98973.84;5111663;28;20194;-55
2022/09/12 09:48:48;;;;;;;7.68;6.95;;;;;;;29.88;40.85;98966.56;5111757;28;20195;-55
2022/09/12 09:51:18;;;;;;;1.80;1.70;;;;;;;29.05;42.27;98962.94;5111419;28;20193;-54
2022/09/12 09:53:48;;;;;;;1.77;1.40;;;;;;;28.33;43.76;98964.88;5092382;28;20590;-53
2022/09/12 09:56:28;;;;;;;5.95;4.10;;;;;;;28.05;45.29;98959.88;5091984;28;20710;-53
2022/09/12 09:58:56;;;;;;;4.10;3.75;;;;;;;27.89;45.83;98959.88;5092177;28;20663;-56
2022/09/12 10:01:32;;;;;;;1.98;1.60;;;;;;;27.43;46.16;98953.34;5092544;28;20562;-56
2022/09/12 10:03:59;;;;;;;2.72;1.50;;;;;;;27.36;46.55;98955.84;5092522;28;20267;-56
2022/09/12 10:06:31;;;;;;;1.58;1.50;;;;;;;27.32;46.58;98966.97;5092007;28;20191;-55
2022/09/12 10:09:20;;;;;;;2.60;1.45;;;;;;;27.18;46.66;98955.16;5091962;28;20206;-55
2022/09/12 10:11:47;;;;;;;4.50;3.15;;;;;;;27.04;47.95;98958.44;5092515;28;20200;-55
2022/09/12 10:14:41;;;;;;;1.77;1.67;;;;;;;26.95;48.02;98954.09;5092009;28;20649;-52
2022/09/12 10:17:28;;;;;;;1.30;1.20;;;;;;;26.73;48.62;98939.50;5081723;28;20195;-52
2022/09/12 10:19:55;;;;;;;1.65;1.55;;;;;;;26.87;48.30;98962.00;5092190;28;20195;-53
2022/09/12 10:22:25;;;;;;;1.58;1.58;;;;;;;26.92;48.11;98952.56;5091911;28;20282;-52
2022/09/12 10:24:54;;;;;;;1.98;1.50;;;;;;;26.92;48.47;98943.72;5092347;28;20203;-52
2022/09/12 10:27:24;;;;;;;2.38;1.63;;;;;;;26.79;47.55;98936.19;5107253;28;20200;-53
2022/09/12 10:29:55;;;;;;;1.70;1.60;;;;;;;26.87;47.47;98944.19;5112289;28;20205;-52
2022/09/12 10:32:28;;;;;;;1.70;1.60;;;;;;;27.02;48.20;98937.28;5111981;28;20610;-53
2022/09/12 10:34:58;;;;;;;2.08;1.90;;;;;;;27.11;48.10;98944.28;5111736;28;20226;-53
2022/09/12 10:37:31;;;;;;;2.15;2.05;;;;;;;27.25;47.63;98950.00;5112450;28;20199;-53
2022/09/12 10:40:00;;;;;;;3.50;1.70;;;;;;;27.25;47.44;98940.16;5112071;27;20191;-53
2022/09/12 10:42:49;;;;;;;1.48;1.48;;;;;;;27.26;46.90;98941.00;5111583;28;20289;-54
2022/09/12 10:45:23;;;;;;;2.15;1.60;;;;;;;27.20;47.59;98926.50;5111707;28;20209;-53
2022/09/12 10:47:58;;;;;;;3.67;1.70;;;;;;;27.20;48.11;98937.16;5112114;28;20194;-53
2022/09/12 10:50:39;;;;;;;1.65;1.63;;;;;;;27.24;47.59;98932.34;5111714;28;20224;-53
2022/09/12 10:53:20;;;;;;;1.88;1.77;;;;;;;27.09;47.34;98935.63;5111011;28;20254;-54
2022/09/12 10:56:07;;;;;;;2.15;1.60;;;;;;;27.19;47.23;98940.00;5111131;28;20700;-53
2022/09/12 10:58:47;;;;;;;2.85;1.60;;;;;;;27.28;47.42;98944.34;5108724;28;20190;-52
2022/09/12 11:01:39;;;;;;;2.20;1.58;;;;;;;27.31;47.37;98944.84;5109196;28;20669;-52
2022/09/12 11:04:20;;;;;;;1.65;1.65;;;;;;;27.23;47.98;98938.66;5110080;28;20198;-52
2022/09/12 11:06:57;;;;;;;1.60;1.60;;;;;;;27.29;47.59;98940.69;5110819;28;20192;-53
2022/09/12 11:09:31;;;;;;;1.60;1.50;;;;;;;27.09;47.17;98932.97;5110137;28;20193;-53
2022/09/12 11:12:08;;;;;;;1.83;1.73;;;;;;;27.06;48.28;98932.47;5108938;28;20278;-53
2022/09/12 11:14:52;;;;;;;2.03;1.92;;;;;;;27.07;47.97;98929.66;5108736;28;20190;-53
2022/09/12 11:17:31;;;;;;;2.97;1.88;;;;;;;27.13;47.44;98930.81;5108723;28;20211;-55
2022/09/12 11:20:36;;;;;;;1.92;1.80;;;;;;;27.25;46.47;98940.16;5108697;28;20198;-55
2022/09/12 11:23:27;;;;;;;4.63;1.75;;;;;;;27.15;47.47;98934.16;5100142;28;20662;-56
2022/09/12 11:26:03;;;;;;;1.75;1.70;;;;;;;26.94;47.12;98923.13;5105496;28;20199;-53
2022/09/12 11:28:37;;;;;;;2.00;1.90;;;;;;;26.87;48.02;98922.88;5110651;28;20204;-53
2022/09/12 11:31:23;;;;;;;3.47;2.20;;;;;;;27.01;48.06;98924.97;5110624;28;20205;-52
2022/09/12 11:33:53;;;;;;;2.80;1.95;;;;;;;26.89;48.11;98883.63;5110862;28;20707;-53
2022/09/12 11:36:33;;;;;;;5.75;2.10;;;;;;;27.01;46.92;98916.97;5110423;28;20218;-56
2022/09/12 11:39:13;;;;;;;3.45;2.00;;;;;;;27.09;46.36;98918.81;5110468;28;20200;-56
2022/09/12 11:41:42;;;;;;;2.50;1.95;;;;;;;27.08;46.66;98920.66;5110644;28;20666;-55
2022/09/12 11:44:19;;;;;;;3.00;1.77;;;;;;;27.02;46.46;98913.31;5110345;28;20272;-56
2022/09/12 11:46:46;;;;;;;2.20;1.92;;;;;;;26.84;46.76;98919.75;5110425;28;20190;-54
2022/09/12 11:49:28;;;;;;;4.47;2.08;;;;;;;26.77;47.93;98923.03;5110337;28;20195;-56